PWSweather.com
Personal Weather Stations
Station Observations

YeovilGB

Lat: 50.949, Lon: -2.627

Elevation: 70

Station Type: Vantage Pro

http://www.yeovil-weather.me.uk/

High Low Average
Temperature 72.8°F22.7°C 54.5°F12.5°C 63.7°F17.6°C
Dew Point 60.4°F15.8°C 52.5°F11.4°C 57.1°F13.9°C
Winds 5.8 mph 9.3 kmh Calm Calm 1.0 mph S1.6 kmh S
Wind Gusts 11.5 mph18.5 kmh -- 3.0 mph4.8 kmh
Humidity 96% 60% 80%
Pressure 30.27 in1025.1 mb 30.21 in1023.0 mb -
Precipitation 0.00 in0.0 mm - -
Hour Temp Dew Point Humidity Winds Wind Gusts Pressure Precip Precip Rate Daily Precip Total
12:00 AM 54.6°F12.6°C 52.6°F11.4°C 93% Calm Calm -- 30.23 in1023.7 mb - 0.00 in0.0 mm 0.00 in0.0 mm
12:10 AM 54.5°F12.5°C 52.5°F11.4°C 93% Calm Calm -- 30.23 in1023.7 mb - 0.00 in0.0 mm 0.00 in0.0 mm
12:20 AM 54.5°F12.5°C 52.8°F11.6°C 94% Calm Calm -- 30.23 in1023.7 mb - 0.00 in0.0 mm 0.00 in0.0 mm
12:30 AM 54.5°F12.5°C 52.8°F11.6°C 94% Calm Calm -- 30.22 in1023.4 mb - 0.00 in0.0 mm 0.00 in0.0 mm
12:40 AM 54.6°F12.6°C 52.9°F11.6°C 94% Calm Calm -- 30.23 in1023.7 mb - 0.00 in0.0 mm 0.00 in0.0 mm
12:50 AM 54.7°F12.6°C 53.0°F11.7°C 94% Calm Calm -- 30.22 in1023.4 mb - 0.00 in0.0 mm 0.00 in0.0 mm
01:00 AM 54.8°F12.7°C 53.1°F11.7°C 94% Calm Calm -- 30.22 in1023.4 mb - 0.00 in0.0 mm 0.00 in0.0 mm
01:10 AM 54.9°F12.7°C 53.2°F11.8°C 94% Calm Calm -- 30.22 in1023.4 mb - 0.00 in0.0 mm 0.00 in0.0 mm
01:20 AM 54.9°F12.7°C 53.2°F11.8°C 94% Calm Calm -- 30.22 in1023.4 mb - 0.00 in0.0 mm 0.00 in0.0 mm
01:30 AM 54.9°F12.7°C 53.2°F11.8°C 94% Calm Calm -- 30.22 in1023.4 mb - 0.00 in0.0 mm 0.00 in0.0 mm
01:40 AM 55.1°F12.8°C 53.7°F12.1°C 95% Calm Calm -- 30.22 in1023.4 mb - 0.00 in0.0 mm 0.00 in0.0 mm
01:50 AM 55.2°F12.9°C 53.8°F12.1°C 95% Calm Calm -- 30.21 in1023.0 mb - 0.00 in0.0 mm 0.00 in0.0 mm
02:00 AM 55.4°F13.0°C 54.0°F12.2°C 95% Calm Calm -- 30.22 in1023.4 mb - 0.00 in0.0 mm 0.00 in0.0 mm
02:10 AM 55.4°F13.0°C 54.0°F12.2°C 95% Calm Calm -- 30.22 in1023.4 mb - 0.00 in0.0 mm 0.00 in0.0 mm
02:20 AM 55.4°F13.0°C 54.0°F12.2°C 95% Calm Calm -- 30.22 in1023.4 mb - 0.00 in0.0 mm 0.00 in0.0 mm
02:30 AM 55.4°F13.0°C 54.0°F12.2°C 95% Calm Calm -- 30.22 in1023.4 mb - 0.00 in0.0 mm 0.00 in0.0 mm
02:40 AM 55.5°F13.1°C 54.1°F12.3°C 95% Calm Calm -- 30.22 in1023.4 mb - 0.00 in0.0 mm 0.00 in0.0 mm
02:50 AM 55.7°F13.2°C 54.3°F12.4°C 95% Calm Calm -- 30.23 in1023.7 mb - 0.00 in0.0 mm 0.00 in0.0 mm
03:00 AM 55.7°F13.2°C 54.3°F12.4°C 95% Calm Calm -- 30.23 in1023.7 mb - 0.00 in0.0 mm 0.00 in0.0 mm
03:10 AM 55.8°F13.2°C 54.4°F12.4°C 95% Calm Calm -- 30.23 in1023.7 mb - 0.00 in0.0 mm 0.00 in0.0 mm
03:20 AM 56.0°F13.3°C 54.6°F12.6°C 95% Calm Calm -- 30.23 in1023.7 mb - 0.00 in0.0 mm 0.00 in0.0 mm
03:30 AM 56.1°F13.4°C 54.7°F12.6°C 95% Calm Calm -- 30.23 in1023.7 mb - 0.00 in0.0 mm 0.00 in0.0 mm
03:40 AM 56.1°F13.4°C 54.7°F12.6°C 95% Calm Calm -- 30.23 in1023.7 mb - 0.00 in0.0 mm 0.00 in0.0 mm
03:50 AM 56.1°F13.4°C 54.7°F12.6°C 95% Calm Calm -- 30.23 in1023.7 mb - 0.00 in0.0 mm 0.00 in0.0 mm
04:00 AM 56.1°F13.4°C 54.7°F12.6°C 95% Calm Calm -- 30.23 in1023.7 mb - 0.00 in0.0 mm 0.00 in0.0 mm
04:10 AM 56.1°F13.4°C 54.7°F12.6°C 95% Calm Calm -- 30.23 in1023.7 mb - 0.00 in0.0 mm 0.00 in0.0 mm
04:20 AM 56.1°F13.4°C 54.7°F12.6°C 95% Calm Calm -- 30.23 in1023.7 mb - 0.00 in0.0 mm 0.00 in0.0 mm
04:30 AM 56.1°F13.4°C 54.7°F12.6°C 95% Calm Calm -- 30.22 in1023.4 mb - 0.00 in0.0 mm 0.00 in0.0 mm
04:40 AM 56.2°F13.4°C 54.8°F12.7°C 95% Calm Calm -- 30.22 in1023.4 mb - 0.00 in0.0 mm 0.00 in0.0 mm
04:50 AM 56.2°F13.4°C 54.8°F12.7°C 95% Calm Calm -- 30.22 in1023.4 mb - 0.00 in0.0 mm 0.00 in0.0 mm
05:00 AM 56.2°F13.4°C 54.8°F12.7°C 95% Calm Calm -- 30.22 in1023.4 mb - 0.00 in0.0 mm 0.00 in0.0 mm
05:10 AM 56.2°F13.4°C 54.8°F12.7°C 95% Calm Calm -- 30.22 in1023.4 mb - 0.00 in0.0 mm 0.00 in0.0 mm
05:20 AM 56.2°F13.4°C 54.8°F12.7°C 95% Calm Calm -- 30.22 in1023.4 mb - 0.00 in0.0 mm 0.00 in0.0 mm
05:30 AM 56.3°F13.5°C 54.9°F12.7°C 95% Calm Calm -- 30.22 in1023.4 mb - 0.00 in0.0 mm 0.00 in0.0 mm
05:40 AM 56.3°F13.5°C 54.9°F12.7°C 95% Calm Calm -- 30.23 in1023.7 mb - 0.00 in0.0 mm 0.00 in0.0 mm
05:50 AM 56.4°F13.6°C 55.0°F12.8°C 95% Calm Calm -- 30.23 in1023.7 mb - 0.00 in0.0 mm 0.00 in0.0 mm
06:00 AM 56.5°F13.6°C 55.4°F13.0°C 96% Calm Calm -- 30.23 in1023.7 mb - 0.00 in0.0 mm 0.00 in0.0 mm
06:10 AM 56.8°F13.8°C 55.6°F13.1°C 96% Calm Calm -- 30.23 in1023.7 mb - 0.00 in0.0 mm 0.00 in0.0 mm
06:20 AM 56.9°F13.8°C 55.8°F13.2°C 96% Calm Calm -- 30.24 in1024.0 mb - 0.00 in0.0 mm 0.00 in0.0 mm
06:30 AM 57.2°F14.0°C 56.1°F13.4°C 96% Calm Calm -- 30.23 in1023.7 mb - 0.00 in0.0 mm 0.00 in0.0 mm
06:40 AM 57.5°F14.2°C 56.4°F13.6°C 96% Calm Calm -- 30.23 in1023.7 mb - 0.00 in0.0 mm 0.00 in0.0 mm
06:50 AM 57.8°F14.3°C 56.7°F13.7°C 96% Calm Calm -- 30.23 in1023.7 mb - 0.00 in0.0 mm 0.00 in0.0 mm
07:00 AM 58.2°F14.6°C 57.1°F13.9°C 96% Calm Calm 2.3 mph3.7 kmh 30.24 in1024.0 mb - 0.00 in0.0 mm 0.00 in0.0 mm
07:10 AM 58.7°F14.8°C 57.6°F14.2°C 96% Calm Calm -- 30.24 in1024.0 mb - 0.00 in0.0 mm 0.00 in0.0 mm
07:20 AM 59.2°F15.1°C 58.1°F14.5°C 96% 2.3 mph SE3.7 kmh SE 3.5 mph5.6 kmh 30.24 in1024.0 mb - 0.00 in0.0 mm 0.00 in0.0 mm
07:30 AM 59.7°F15.4°C 58.3°F14.6°C 95% Calm Calm 1.2 mph1.9 kmh 30.24 in1024.0 mb - 0.00 in0.0 mm 0.00 in0.0 mm
07:40 AM 60.2°F15.7°C 58.8°F14.9°C 95% 3.5 mph SSE5.6 kmh SSE 5.8 mph9.3 kmh 30.24 in1024.0 mb - 0.00 in0.0 mm 0.00 in0.0 mm
07:50 AM 60.7°F15.9°C 59.0°F15.0°C 94% 1.2 mph S1.9 kmh S 4.6 mph7.4 kmh 30.25 in1024.4 mb - 0.00 in0.0 mm 0.00 in0.0 mm
08:00 AM 61.3°F16.3°C 59.6°F15.3°C 94% Calm Calm 4.6 mph7.4 kmh 30.25 in1024.4 mb - 0.00 in0.0 mm 0.00 in0.0 mm
08:10 AM 61.9°F16.6°C 59.9°F15.5°C 93% Calm Calm 3.5 mph5.6 kmh 30.25 in1024.4 mb - 0.00 in0.0 mm 0.00 in0.0 mm
08:20 AM 62.4°F16.9°C 60.1°F15.6°C 92% 2.3 mph SE3.7 kmh SE 2.3 mph3.7 kmh 30.25 in1024.4 mb - 0.00 in0.0 mm 0.00 in0.0 mm
08:30 AM 63.0°F17.2°C 60.3°F15.7°C 91% 3.5 mph ESE5.6 kmh ESE 4.6 mph7.4 kmh 30.26 in1024.7 mb - 0.00 in0.0 mm 0.00 in0.0 mm
08:40 AM 63.4°F17.4°C 59.8°F15.4°C 88% 4.6 mph SE7.4 kmh SE 4.6 mph7.4 kmh 30.26 in1024.7 mb - 0.00 in0.0 mm 0.00 in0.0 mm
08:50 AM 64.0°F17.8°C 60.1°F15.6°C 87% 4.6 mph SSE7.4 kmh SSE 6.9 mph11.1 kmh 30.26 in1024.7 mb - 0.00 in0.0 mm 0.00 in0.0 mm
09:00 AM 64.5°F18.1°C 59.9°F15.5°C 85% 2.3 mph SE3.7 kmh SE 6.9 mph11.1 kmh 30.27 in1025.1 mb - 0.00 in0.0 mm 0.00 in0.0 mm
09:10 AM 64.9°F18.3°C 60.0°F15.6°C 84% 2.3 mph SSE3.7 kmh SSE 6.9 mph11.1 kmh 30.27 in1025.1 mb - 0.00 in0.0 mm 0.00 in0.0 mm
09:20 AM 65.3°F18.5°C 60.0°F15.6°C 83% 3.5 mph SE5.6 kmh SE 5.8 mph9.3 kmh 30.27 in1025.1 mb - 0.00 in0.0 mm 0.00 in0.0 mm
09:30 AM 65.7°F18.7°C 60.1°F15.6°C 82% 2.3 mph SE3.7 kmh SE 3.5 mph5.6 kmh 30.27 in1025.1 mb - 0.00 in0.0 mm 0.00 in0.0 mm
09:40 AM 66.0°F18.9°C 60.0°F15.6°C 81% 3.5 mph S5.6 kmh S 4.6 mph7.4 kmh 30.27 in1025.1 mb - 0.00 in0.0 mm 0.00 in0.0 mm
09:50 AM 66.2°F19.0°C 59.8°F15.4°C 80% 1.2 mph SSE1.9 kmh SSE 3.5 mph5.6 kmh 30.27 in1025.1 mb - 0.00 in0.0 mm 0.00 in0.0 mm
10:00 AM 66.5°F19.2°C 60.1°F15.6°C 80% 1.2 mph SE1.9 kmh SE 6.9 mph11.1 kmh 30.27 in1025.1 mb - 0.00 in0.0 mm 0.00 in0.0 mm
10:10 AM 67.0°F19.4°C 60.2°F15.7°C 79% Calm Calm 3.5 mph5.6 kmh 30.27 in1025.1 mb - 0.00 in0.0 mm 0.00 in0.0 mm
10:20 AM 67.5°F19.7°C 60.4°F15.8°C 78% 2.3 mph S3.7 kmh S 3.5 mph5.6 kmh 30.27 in1025.1 mb - 0.00 in0.0 mm 0.00 in0.0 mm
10:30 AM 67.7°F19.8°C 59.5°F15.3°C 75% 3.5 mph SSE5.6 kmh SSE 5.8 mph9.3 kmh 30.27 in1025.1 mb - 0.00 in0.0 mm 0.00 in0.0 mm
10:40 AM 67.9°F19.9°C 59.7°F15.4°C 75% 3.5 mph S5.6 kmh S 4.6 mph7.4 kmh 30.27 in1025.1 mb - 0.00 in0.0 mm 0.00 in0.0 mm
10:50 AM 68.2°F20.1°C 60.0°F15.6°C 75% 2.3 mph SE3.7 kmh SE 5.8 mph9.3 kmh 30.27 in1025.1 mb - 0.00 in0.0 mm 0.00 in0.0 mm
11:00 AM 68.5°F20.3°C 59.5°F15.3°C 73% 4.6 mph SE7.4 kmh SE 10.4 mph16.7 kmh 30.27 in1025.1 mb - 0.00 in0.0 mm 0.00 in0.0 mm
11:10 AM 68.8°F20.4°C 60.2°F15.7°C 74% 2.3 mph SSE3.7 kmh SSE 6.9 mph11.1 kmh 30.27 in1025.1 mb - 0.00 in0.0 mm 0.00 in0.0 mm
11:20 AM 69.2°F20.7°C 59.8°F15.4°C 72% 1.2 mph SSE1.9 kmh SSE 5.8 mph9.3 kmh 30.26 in1024.7 mb - 0.00 in0.0 mm 0.00 in0.0 mm
11:30 AM 69.4°F20.8°C 59.6°F15.3°C 71% 3.5 mph S5.6 kmh S 11.5 mph18.5 kmh 30.27 in1025.1 mb - 0.00 in0.0 mm 0.00 in0.0 mm
11:40 AM 69.5°F20.8°C 60.1°F15.6°C 72% 1.2 mph S1.9 kmh S 2.3 mph3.7 kmh 30.26 in1024.7 mb - 0.00 in0.0 mm 0.00 in0.0 mm
11:50 AM 69.7°F20.9°C 58.7°F14.8°C 68% 5.8 mph S9.3 kmh S 11.5 mph18.5 kmh 30.26 in1024.7 mb - 0.00 in0.0 mm 0.00 in0.0 mm
12:00 PM 69.9°F21.1°C 58.4°F14.7°C 67% 2.3 mph S3.7 kmh S 6.9 mph11.1 kmh 30.26 in1024.7 mb - 0.00 in0.0 mm 0.00 in0.0 mm
12:10 PM 70.3°F21.3°C 58.4°F14.7°C 66% 3.5 mph S5.6 kmh S 5.8 mph9.3 kmh 30.26 in1024.7 mb - 0.00 in0.0 mm 0.00 in0.0 mm
12:20 PM 70.8°F21.6°C 58.4°F14.7°C 65% 5.8 mph SSE9.3 kmh SSE 11.5 mph18.5 kmh 30.26 in1024.7 mb - 0.00 in0.0 mm 0.00 in0.0 mm
12:30 PM 70.9°F21.6°C 58.5°F14.7°C 65% 4.6 mph S7.4 kmh S 8.1 mph13.0 kmh 30.26 in1024.7 mb - 0.00 in0.0 mm 0.00 in0.0 mm
12:40 PM 71.1°F21.7°C 58.7°F14.8°C 65% 1.2 mph SSE1.9 kmh SSE 3.5 mph5.6 kmh 30.26 in1024.7 mb - 0.00 in0.0 mm 0.00 in0.0 mm
12:50 PM 71.5°F21.9°C 58.2°F14.6°C 63% 1.2 mph SSW1.9 kmh SSW 4.6 mph7.4 kmh 30.26 in1024.7 mb - 0.00 in0.0 mm 0.00 in0.0 mm
01:00 PM 71.6°F22.0°C 58.8°F14.9°C 64% 3.5 mph S5.6 kmh S 6.9 mph11.1 kmh 30.26 in1024.7 mb - 0.00 in0.0 mm 0.00 in0.0 mm
01:10 PM 71.6°F22.0°C 58.8°F14.9°C 64% 2.3 mph SSE3.7 kmh SSE 8.1 mph13.0 kmh 30.26 in1024.7 mb - 0.00 in0.0 mm 0.00 in0.0 mm
01:20 PM 71.7°F22.1°C 58.4°F14.7°C 63% 4.6 mph SSE7.4 kmh SSE 8.1 mph13.0 kmh 30.25 in1024.4 mb - 0.00 in0.0 mm 0.00 in0.0 mm
01:30 PM 71.9°F22.2°C 58.6°F14.8°C 63% Calm Calm -- 30.25 in1024.4 mb - 0.00 in0.0 mm 0.00 in0.0 mm
01:40 PM 72.1°F22.3°C 58.4°F14.7°C 62% 2.3 mph SSE3.7 kmh SSE 5.8 mph9.3 kmh 30.25 in1024.4 mb - 0.00 in0.0 mm 0.00 in0.0 mm
01:50 PM 72.3°F22.4°C 58.1°F14.5°C 61% 3.5 mph SE5.6 kmh SE 9.2 mph14.8 kmh 30.25 in1024.4 mb - 0.00 in0.0 mm 0.00 in0.0 mm
02:00 PM 72.3°F22.4°C 58.1°F14.5°C 61% 2.3 mph SE3.7 kmh SE 8.1 mph13.0 kmh 30.25 in1024.4 mb - 0.00 in0.0 mm 0.00 in0.0 mm
02:10 PM 72.2°F22.3°C 58.5°F14.7°C 62% 3.5 mph SE5.6 kmh SE 11.5 mph18.5 kmh 30.25 in1024.4 mb - 0.00 in0.0 mm 0.00 in0.0 mm
02:20 PM 72.5°F22.5°C 58.7°F14.8°C 62% 2.3 mph S3.7 kmh S 5.8 mph9.3 kmh 30.25 in1024.4 mb - 0.00 in0.0 mm 0.00 in0.0 mm
02:30 PM 72.5°F22.5°C 58.3°F14.6°C 61% 2.3 mph SW3.7 kmh SW 3.5 mph5.6 kmh 30.25 in1024.4 mb - 0.00 in0.0 mm 0.00 in0.0 mm
02:40 PM 72.5°F22.5°C 58.7°F14.8°C 62% 2.3 mph SSE3.7 kmh SSE 9.2 mph14.8 kmh 30.25 in1024.4 mb - 0.00 in0.0 mm 0.00 in0.0 mm
02:50 PM 72.2°F22.3°C 58.5°F14.7°C 62% 2.3 mph SSE3.7 kmh SSE 5.8 mph9.3 kmh 30.25 in1024.4 mb - 0.00 in0.0 mm 0.00 in0.0 mm
03:00 PM 72.3°F22.4°C 59.0°F15.0°C 63% 1.2 mph S1.9 kmh S 9.2 mph14.8 kmh 30.25 in1024.4 mb - 0.00 in0.0 mm 0.00 in0.0 mm
03:10 PM 72.5°F22.5°C 58.7°F14.8°C 62% 5.8 mph S9.3 kmh S 9.2 mph14.8 kmh 30.24 in1024.0 mb - 0.00 in0.0 mm 0.00 in0.0 mm
03:20 PM 72.4°F22.4°C 58.6°F14.8°C 62% 3.5 mph S5.6 kmh S 6.9 mph11.1 kmh 30.24 in1024.0 mb - 0.00 in0.0 mm 0.00 in0.0 mm
03:30 PM 72.6°F22.6°C 58.8°F14.9°C 62% 1.2 mph S1.9 kmh S 5.8 mph9.3 kmh 30.24 in1024.0 mb - 0.00 in0.0 mm 0.00 in0.0 mm
03:40 PM 72.8°F22.7°C 59.0°F15.0°C 62% 1.2 mph S1.9 kmh S 5.8 mph9.3 kmh 30.24 in1024.0 mb - 0.00 in0.0 mm 0.00 in0.0 mm
03:50 PM 72.8°F22.7°C 59.1°F15.1°C 62% 1.2 mph S1.9 kmh S 3.5 mph5.6 kmh 30.24 in1024.0 mb - 0.00 in0.0 mm 0.00 in0.0 mm
04:00 PM 72.8°F22.7°C 58.1°F14.5°C 60% 1.2 mph SSE1.9 kmh SSE 2.3 mph3.7 kmh 30.24 in1024.0 mb - 0.00 in0.0 mm 0.00 in0.0 mm
04:10 PM 72.6°F22.6°C 58.8°F14.9°C 62% 3.5 mph S5.6 kmh S 9.2 mph14.8 kmh 30.24 in1024.0 mb - 0.00 in0.0 mm 0.00 in0.0 mm
04:20 PM 72.3°F22.4°C 59.0°F15.0°C 63% 3.5 mph SSE5.6 kmh SSE 8.1 mph13.0 kmh 30.24 in1024.0 mb - 0.00 in0.0 mm 0.00 in0.0 mm
04:30 PM 72.0°F22.2°C 58.7°F14.8°C 63% 1.2 mph S1.9 kmh S 5.8 mph9.3 kmh 30.24 in1024.0 mb - 0.00 in0.0 mm 0.00 in0.0 mm
04:40 PM 71.8°F22.1°C 58.5°F14.7°C 63% Calm Calm 6.9 mph11.1 kmh 30.24 in1024.0 mb - 0.00 in0.0 mm 0.00 in0.0 mm
04:50 PM 71.5°F21.9°C 58.2°F14.6°C 63% 3.5 mph S5.6 kmh S 4.6 mph7.4 kmh 30.24 in1024.0 mb - 0.00 in0.0 mm 0.00 in0.0 mm
05:00 PM 71.2°F21.8°C 58.4°F14.7°C 64% 1.2 mph SSW1.9 kmh SSW 3.5 mph5.6 kmh 30.24 in1024.0 mb - 0.00 in0.0 mm 0.00 in0.0 mm
05:10 PM 71.0°F21.7°C 58.2°F14.6°C 64% 2.3 mph S3.7 kmh S 3.5 mph5.6 kmh 30.24 in1024.0 mb - 0.00 in0.0 mm 0.00 in0.0 mm
05:20 PM 70.8°F21.6°C 58.4°F14.7°C 65% 2.3 mph S3.7 kmh S 8.1 mph13.0 kmh 30.24 in1024.0 mb - 0.00 in0.0 mm 0.00 in0.0 mm
05:30 PM 70.7°F21.5°C 59.2°F15.1°C 67% 3.5 mph S5.6 kmh S 8.1 mph13.0 kmh 30.24 in1024.0 mb - 0.00 in0.0 mm 0.00 in0.0 mm
05:40 PM 70.2°F21.2°C 59.2°F15.1°C 68% 4.6 mph S7.4 kmh S 9.2 mph14.8 kmh 30.25 in1024.4 mb - 0.00 in0.0 mm 0.00 in0.0 mm
05:50 PM 69.8°F21.0°C 58.8°F14.9°C 68% Calm Calm 3.5 mph5.6 kmh 30.24 in1024.0 mb - 0.00 in0.0 mm 0.00 in0.0 mm
06:00 PM 69.5°F20.8°C 58.5°F14.7°C 68% Calm Calm 4.6 mph7.4 kmh 30.25 in1024.4 mb - 0.00 in0.0 mm 0.00 in0.0 mm
06:10 PM 69.3°F20.7°C 58.7°F14.8°C 69% 2.3 mph SE3.7 kmh SE 5.8 mph9.3 kmh 30.25 in1024.4 mb - 0.00 in0.0 mm 0.00 in0.0 mm
06:20 PM 69.0°F20.6°C 58.4°F14.7°C 69% Calm Calm 1.2 mph1.9 kmh 30.25 in1024.4 mb - 0.00 in0.0 mm 0.00 in0.0 mm
06:30 PM 68.6°F20.3°C 58.4°F14.7°C 70% 1.2 mph SE1.9 kmh SE 5.8 mph9.3 kmh 30.25 in1024.4 mb - 0.00 in0.0 mm 0.00 in0.0 mm
06:40 PM 68.3°F20.2°C 58.5°F14.7°C 71% 2.3 mph SE3.7 kmh SE 5.8 mph9.3 kmh 30.25 in1024.4 mb - 0.00 in0.0 mm 0.00 in0.0 mm
06:50 PM 67.9°F19.9°C 58.6°F14.8°C 72% Calm Calm -- 30.25 in1024.4 mb - 0.00 in0.0 mm 0.00 in0.0 mm
07:00 PM 67.6°F19.8°C 58.6°F14.8°C 73% 1.2 mph SE1.9 kmh SE 4.6 mph7.4 kmh 30.25 in1024.4 mb - 0.00 in0.0 mm 0.00 in0.0 mm
07:20 PM 66.3°F19.1°C 57.4°F14.1°C 73% 2.3 mph SE3.7 kmh SE 5.8 mph9.3 kmh 30.26 in1024.7 mb - 0.00 in0.0 mm 0.00 in0.0 mm
07:30 PM 65.7°F18.7°C 57.2°F14.0°C 74% Calm Calm -- 30.26 in1024.7 mb - 0.00 in0.0 mm 0.00 in0.0 mm
07:40 PM 65.1°F18.4°C 57.0°F13.9°C 75% Calm Calm -- 30.26 in1024.7 mb - 0.00 in0.0 mm 0.00 in0.0 mm
07:50 PM 64.6°F18.1°C 56.8°F13.8°C 76% Calm Calm 1.2 mph1.9 kmh 30.26 in1024.7 mb - 0.00 in0.0 mm 0.00 in0.0 mm
08:00 PM 64.1°F17.8°C 56.4°F13.6°C 76% Calm Calm -- 30.27 in1025.1 mb - 0.00 in0.0 mm 0.00 in0.0 mm
08:10 PM 63.6°F17.6°C 55.9°F13.3°C 76% Calm Calm -- 30.27 in1025.1 mb - 0.00 in0.0 mm 0.00 in0.0 mm
08:20 PM 63.1°F17.3°C 55.8°F13.2°C 77% Calm Calm -- 30.27 in1025.1 mb - 0.00 in0.0 mm 0.00 in0.0 mm
08:30 PM 62.7°F17.1°C 55.4°F13.0°C 77% Calm Calm -- 30.27 in1025.1 mb - 0.00 in0.0 mm 0.00 in0.0 mm
08:40 PM 62.4°F16.9°C 55.4°F13.0°C 78% Calm Calm -- 30.27 in1025.1 mb - 0.00 in0.0 mm 0.00 in0.0 mm
08:50 PM 62.1°F16.7°C 55.2°F12.9°C 78% Calm Calm -- 30.27 in1025.1 mb - 0.00 in0.0 mm 0.00 in0.0 mm
09:00 PM 61.9°F16.6°C 55.3°F12.9°C 79% Calm Calm -- 30.27 in1025.1 mb - 0.00 in0.0 mm 0.00 in0.0 mm
09:10 PM 61.8°F16.6°C 55.2°F12.9°C 79% Calm Calm 2.3 mph3.7 kmh 30.27 in1025.1 mb - 0.00 in0.0 mm 0.00 in0.0 mm
09:20 PM 61.8°F16.6°C 55.2°F12.9°C 79% Calm Calm 1.2 mph1.9 kmh 30.27 in1025.1 mb - 0.00 in0.0 mm 0.00 in0.0 mm
09:30 PM 61.8°F16.6°C 55.2°F12.9°C 79% Calm Calm -- 30.27 in1025.1 mb - 0.00 in0.0 mm 0.00 in0.0 mm
09:40 PM 61.7°F16.5°C 55.1°F12.8°C 79% Calm Calm -- 30.27 in1025.1 mb - 0.00 in0.0 mm 0.00 in0.0 mm
09:50 PM 61.6°F16.4°C 55.4°F13.0°C 80% Calm Calm -- 30.27 in1025.1 mb - 0.00 in0.0 mm 0.00 in0.0 mm
10:00 PM 61.7°F16.5°C 55.5°F13.1°C 80% Calm Calm -- 30.27 in1025.1 mb - 0.00 in0.0 mm 0.00 in0.0 mm
10:10 PM 61.8°F16.6°C 55.9°F13.3°C 81% Calm Calm -- 30.27 in1025.1 mb - 0.00 in0.0 mm 0.00 in0.0 mm
10:20 PM 61.8°F16.6°C 55.9°F13.3°C 81% Calm Calm -- 30.27 in1025.1 mb - 0.00 in0.0 mm 0.00 in0.0 mm
10:30 PM 61.8°F16.6°C 56.2°F13.4°C 82% Calm Calm -- 30.27 in1025.1 mb - 0.00 in0.0 mm 0.00 in0.0 mm
10:40 PM 61.8°F16.6°C 56.2°F13.4°C 82% Calm Calm -- 30.27 in1025.1 mb - 0.00 in0.0 mm 0.00 in0.0 mm
10:50 PM 61.7°F16.5°C 56.5°F13.6°C 83% Calm Calm -- 30.27 in1025.1 mb - 0.00 in0.0 mm 0.00 in0.0 mm
11:00 PM 61.7°F16.5°C 56.5°F13.6°C 83% Calm Calm -- 30.27 in1025.1 mb - 0.00 in0.0 mm 0.00 in0.0 mm
11:10 PM 61.8°F16.6°C 56.9°F13.8°C 84% Calm Calm -- 30.27 in1025.1 mb - 0.00 in0.0 mm 0.00 in0.0 mm
11:20 PM 61.8°F16.6°C 56.9°F13.8°C 84% Calm Calm -- 30.27 in1025.1 mb - 0.00 in0.0 mm 0.00 in0.0 mm
11:30 PM 61.8°F16.6°C 57.2°F14.0°C 85% 2.3 mph SSE3.7 kmh SSE 4.6 mph7.4 kmh 30.26 in1024.7 mb - 0.00 in0.0 mm 0.00 in0.0 mm
11:40 PM 61.9°F16.6°C 57.0°F13.9°C 84% Calm Calm -- 30.26 in1024.7 mb - 0.00 in0.0 mm 0.00 in0.0 mm
11:50 PM 62.0°F16.7°C 57.1°F13.9°C 84% Calm Calm -- 30.26 in1024.7 mb - 0.00 in0.0 mm 0.00 in0.0 mm